sensor_id;sensor_type;location;lat;lon;timestamp;temperature;humidity
19058;DHT22;9662;53.612;9.914;2022-08-05T00:01:15;21.40;99.90
19058;DHT22;9662;53.612;9.914;2022-08-05T00:03:42;21.30;99.90
19058;DHT22;9662;53.612;9.914;2022-08-05T00:06:09;21.40;99.90
19058;DHT22;9662;53.612;9.914;2022-08-05T00:08:37;21.30;99.90
19058;DHT22;9662;53.612;9.914;2022-08-05T00:11:06;21.10;99.90
19058;DHT22;9662;53.612;9.914;2022-08-05T00:13:34;21.30;99.90
19058;DHT22;9662;53.612;9.914;2022-08-05T00:16:01;21.40;99.90
19058;DHT22;9662;53.612;9.914;2022-08-05T00:18:29;21.20;99.90
19058;DHT22;9662;53.612;9.914;2022-08-05T00:20:56;21.10;99.90
19058;DHT22;9662;53.612;9.914;2022-08-05T00:23:24;21.40;99.90
19058;DHT22;9662;53.612;9.914;2022-08-05T00:25:50;21.40;99.90
19058;DHT22;9662;53.612;9.914;2022-08-05T00:28:17;21.30;99.90
19058;DHT22;9662;53.612;9.914;2022-08-05T00:30:44;21.10;99.90
19058;DHT22;9662;53.612;9.914;2022-08-05T00:33:11;21.20;99.90
19058;DHT22;9662;53.612;9.914;2022-08-05T00:35:39;21.00;99.90
19058;DHT22;9662;53.612;9.914;2022-08-05T00:38:06;21.20;99.90
19058;DHT22;9662;53.612;9.914;2022-08-05T00:40:33;20.80;99.90
19058;DHT22;9662;53.612;9.914;2022-08-05T00:43:01;20.60;99.90
19058;DHT22;9662;53.612;9.914;2022-08-05T00:45:28;20.50;99.90
19058;DHT22;9662;53.612;9.914;2022-08-05T00:47:55;20.40;99.90
19058;DHT22;9662;53.612;9.914;2022-08-05T00:50:22;20.90;99.90
19058;DHT22;9662;53.612;9.914;2022-08-05T00:52:50;20.60;99.90
19058;DHT22;9662;53.612;9.914;2022-08-05T00:55:17;20.30;99.90
19058;DHT22;9662;53.612;9.914;2022-08-05T00:57:43;20.40;99.90
19058;DHT22;9662;53.612;9.914;2022-08-05T01:00:11;20.50;99.90
19058;DHT22;9662;53.612;9.914;2022-08-05T01:02:38;20.10;99.90
19058;DHT22;9662;53.612;9.914;2022-08-05T01:05:05;19.80;99.90
19058;DHT22;9662;53.612;9.914;2022-08-05T01:07:32;19.90;99.90
19058;DHT22;9662;53.612;9.914;2022-08-05T01:10:01;20.00;99.90
19058;DHT22;9662;53.612;9.914;2022-08-05T01:12:29;19.80;99.90
19058;DHT22;9662;53.612;9.914;2022-08-05T01:15:00;19.90;99.90
19058;DHT22;9662;53.612;9.914;2022-08-05T01:17:33;20.00;99.90
19058;DHT22;9662;53.612;9.914;2022-08-05T01:20:12;20.20;99.90
19058;DHT22;9662;53.612;9.914;2022-08-05T01:22:55;19.90;99.90
19058;DHT22;9662;53.612;9.914;2022-08-05T01:25:46;19.90;99.90
19058;DHT22;9662;53.612;9.914;2022-08-05T01:28:25;20.00;99.90
19058;DHT22;9662;53.612;9.914;2022-08-05T01:30:56;20.20;99.90
19058;DHT22;9662;53.612;9.914;2022-08-05T01:33:32;19.70;99.90
19058;DHT22;9662;53.612;9.914;2022-08-05T01:36:02;19.70;99.90
19058;DHT22;9662;53.612;9.914;2022-08-05T01:38:32;20.10;99.90
19058;DHT22;9662;53.612;9.914;2022-08-05T01:41:03;20.50;99.90
19058;DHT22;9662;53.612;9.914;2022-08-05T01:43:32;20.20;99.90
19058;DHT22;9662;53.612;9.914;2022-08-05T01:46:00;20.50;99.90
19058;DHT22;9662;53.612;9.914;2022-08-05T01:48:28;20.40;99.90
19058;DHT22;9662;53.612;9.914;2022-08-05T01:50:57;20.60;99.90
19058;DHT22;9662;53.612;9.914;2022-08-05T01:53:25;20.10;99.90
19058;DHT22;9662;53.612;9.914;2022-08-05T01:55:56;20.00;99.90
19058;DHT22;9662;53.612;9.914;2022-08-05T01:58:23;20.20;99.90
19058;DHT22;9662;53.612;9.914;2022-08-05T02:00:53;19.80;99.90
19058;DHT22;9662;53.612;9.914;2022-08-05T02:03:24;19.50;99.90
19058;DHT22;9662;53.612;9.914;2022-08-05T02:05:52;19.50;99.90
19058;DHT22;9662;53.612;9.914;2022-08-05T02:08:20;19.50;99.90
19058;DHT22;9662;53.612;9.914;2022-08-05T02:10:50;19.90;99.90
19058;DHT22;9662;53.612;9.914;2022-08-05T02:13:24;20.20;99.90
19058;DHT22;9662;53.612;9.914;2022-08-05T02:16:00;20.20;99.90
19058;DHT22;9662;53.612;9.914;2022-08-05T02:18:31;20.30;99.90
19058;DHT22;9662;53.612;9.914;2022-08-05T02:21:05;20.10;99.90
19058;DHT22;9662;53.612;9.914;2022-08-05T02:23:38;20.10;99.90
19058;DHT22;9662;53.612;9.914;2022-08-05T02:26:08;20.40;99.90
19058;DHT22;9662;53.612;9.914;2022-08-05T02:28:39;20.00;99.90
19058;DHT22;9662;53.612;9.914;2022-08-05T02:31:11;19.90;99.90
19058;DHT22;9662;53.612;9.914;2022-08-05T02:33:43;20.00;99.90
19058;DHT22;9662;53.612;9.914;2022-08-05T02:36:15;20.00;99.90
19058;DHT22;9662;53.612;9.914;2022-08-05T02:38:45;19.90;99.90
19058;DHT22;9662;53.612;9.914;2022-08-05T02:41:12;20.00;99.90
19058;DHT22;9662;53.612;9.914;2022-08-05T02:43:40;20.10;99.90
19058;DHT22;9662;53.612;9.914;2022-08-05T02:46:09;20.10;99.90
19058;DHT22;9662;53.612;9.914;2022-08-05T02:48:38;20.40;99.90
19058;DHT22;9662;53.612;9.914;2022-08-05T02:51:05;20.40;99.90
19058;DHT22;9662;53.612;9.914;2022-08-05T02:53:33;19.40;99.90
19058;DHT22;9662;53.612;9.914;2022-08-05T02:56:00;18.90;99.90
19058;DHT22;9662;53.612;9.914;2022-08-05T02:58:28;19.30;99.90
19058;DHT22;9662;53.612;9.914;2022-08-05T03:00:56;19.40;99.90
19058;DHT22;9662;53.612;9.914;2022-08-05T03:03:27;19.10;99.90
19058;DHT22;9662;53.612;9.914;2022-08-05T03:05:55;18.90;99.90
19058;DHT22;9662;53.612;9.914;2022-08-05T03:08:23;18.50;99.90
19058;DHT22;9662;53.612;9.914;2022-08-05T03:10:50;18.60;99.90
19058;DHT22;9662;53.612;9.914;2022-08-05T03:13:17;18.50;99.90
19058;DHT22;9662;53.612;9.914;2022-08-05T03:15:44;18.30;99.90
19058;DHT22;9662;53.612;9.914;2022-08-05T03:18:12;18.60;99.90
19058;DHT22;9662;53.612;9.914;2022-08-05T03:20:40;18.20;99.90
19058;DHT22;9662;53.612;9.914;2022-08-05T03:23:08;18.50;99.90
19058;DHT22;9662;53.612;9.914;2022-08-05T03:25:37;18.90;99.90
19058;DHT22;9662;53.612;9.914;2022-08-05T03:28:05;18.80;99.90
19058;DHT22;9662;53.612;9.914;2022-08-05T03:30:32;19.00;99.90
19058;DHT22;9662;53.612;9.914;2022-08-05T03:33:00;19.40;99.90
19058;DHT22;9662;53.612;9.914;2022-08-05T03:35:27;19.20;99.90
19058;DHT22;9662;53.612;9.914;2022-08-05T03:37:57;18.70;99.90
19058;DHT22;9662;53.612;9.914;2022-08-05T03:40:24;18.80;99.90
19058;DHT22;9662;53.612;9.914;2022-08-05T03:42:51;18.80;99.90
19058;DHT22;9662;53.612;9.914;2022-08-05T03:45:18;19.00;99.90
19058;DHT22;9662;53.612;9.914;2022-08-05T03:47:44;18.80;99.90
19058;DHT22;9662;53.612;9.914;2022-08-05T03:50:11;18.90;99.90
19058;DHT22;9662;53.612;9.914;2022-08-05T03:52:43;18.60;99.90
19058;DHT22;9662;53.612;9.914;2022-08-05T03:55:21;18.70;99.90
19058;DHT22;9662;53.612;9.914;2022-08-05T03:57:51;18.90;99.90
19058;DHT22;9662;53.612;9.914;2022-08-05T04:00:19;18.90;99.90
19058;DHT22;9662;53.612;9.914;2022-08-05T04:02:51;18.60;99.90
19058;DHT22;9662;53.612;9.914;2022-08-05T04:05:20;18.70;99.90
19058;DHT22;9662;53.612;9.914;2022-08-05T04:07:47;18.80;99.90
19058;DHT22;9662;53.612;9.914;2022-08-05T04:10:16;18.70;99.90
19058;DHT22;9662;53.612;9.914;2022-08-05T04:12:43;18.70;99.90
19058;DHT22;9662;53.612;9.914;2022-08-05T04:15:11;19.30;99.90
19058;DHT22;9662;53.612;9.914;2022-08-05T04:17:38;19.20;99.90
19058;DHT22;9662;53.612;9.914;2022-08-05T04:20:05;19.40;99.90
19058;DHT22;9662;53.612;9.914;2022-08-05T04:22:32;19.00;99.90
19058;DHT22;9662;53.612;9.914;2022-08-05T04:24:58;19.00;99.90
19058;DHT22;9662;53.612;9.914;2022-08-05T04:27:27;19.20;99.90
19058;DHT22;9662;53.612;9.914;2022-08-05T04:29:53;19.30;99.90
19058;DHT22;9662;53.612;9.914;2022-08-05T04:32:20;19.00;99.90
19058;DHT22;9662;53.612;9.914;2022-08-05T04:34:47;19.10;99.90
19058;DHT22;9662;53.612;9.914;2022-08-05T04:37:13;19.00;99.90
19058;DHT22;9662;53.612;9.914;2022-08-05T04:39:40;19.10;99.90
19058;DHT22;9662;53.612;9.914;2022-08-05T04:42:08;18.80;99.90
19058;DHT22;9662;53.612;9.914;2022-08-05T04:44:36;18.70;99.90
19058;DHT22;9662;53.612;9.914;2022-08-05T04:47:03;19.00;99.90
19058;DHT22;9662;53.612;9.914;2022-08-05T04:49:30;19.00;99.90
19058;DHT22;9662;53.612;9.914;2022-08-05T04:51:56;18.90;99.90
19058;DHT22;9662;53.612;9.914;2022-08-05T04:54:23;18.80;99.90
19058;DHT22;9662;53.612;9.914;2022-08-05T04:56:51;19.00;99.90
19058;DHT22;9662;53.612;9.914;2022-08-05T04:59:18;18.90;99.90
19058;DHT22;9662;53.612;9.914;2022-08-05T05:01:48;19.30;99.90
19058;DHT22;9662;53.612;9.914;2022-08-05T05:04:15;19.20;99.90
19058;DHT22;9662;53.612;9.914;2022-08-05T05:06:42;19.30;99.90
19058;DHT22;9662;53.612;9.914;2022-08-05T05:09:09;19.30;99.90
19058;DHT22;9662;53.612;9.914;2022-08-05T05:11:36;18.60;99.90
19058;DHT22;9662;53.612;9.914;2022-08-05T05:14:03;18.80;99.90
19058;DHT22;9662;53.612;9.914;2022-08-05T05:16:31;18.90;99.90
19058;DHT22;9662;53.612;9.914;2022-08-05T05:18:59;19.60;99.90
19058;DHT22;9662;53.612;9.914;2022-08-05T05:21:26;19.40;99.90
19058;DHT22;9662;53.612;9.914;2022-08-05T05:23:53;19.40;99.90
19058;DHT22;9662;53.612;9.914;2022-08-05T05:26:20;19.60;99.90
19058;DHT22;9662;53.612;9.914;2022-08-05T05:28:47;19.80;99.90
19058;DHT22;9662;53.612;9.914;2022-08-05T05:31:13;19.60;99.90
19058;DHT22;9662;53.612;9.914;2022-08-05T05:33:40;20.00;99.90
19058;DHT22;9662;53.612;9.914;2022-08-05T05:36:09;19.90;99.90
19058;DHT22;9662;53.612;9.914;2022-08-05T05:38:35;19.90;99.90
19058;DHT22;9662;53.612;9.914;2022-08-05T05:41:02;20.70;99.90
19058;DHT22;9662;53.612;9.914;2022-08-05T05:43:29;19.70;99.90
19058;DHT22;9662;53.612;9.914;2022-08-05T05:45:56;19.60;99.90
19058;DHT22;9662;53.612;9.914;2022-08-05T05:48:22;19.70;99.90
19058;DHT22;9662;53.612;9.914;2022-08-05T05:50:50;19.60;99.90
19058;DHT22;9662;53.612;9.914;2022-08-05T05:53:18;19.50;99.90
19058;DHT22;9662;53.612;9.914;2022-08-05T05:55:44;19.50;99.90
19058;DHT22;9662;53.612;9.914;2022-08-05T05:58:11;18.80;99.90
19058;DHT22;9662;53.612;9.914;2022-08-05T06:00:38;19.10;99.90
19058;DHT22;9662;53.612;9.914;2022-08-05T06:03:05;18.80;99.90
19058;DHT22;9662;53.612;9.914;2022-08-05T06:05:31;19.20;99.90
19058;DHT22;9662;53.612;9.914;2022-08-05T06:07:58;19.00;99.90
19058;DHT22;9662;53.612;9.914;2022-08-05T06:10:26;19.20;99.90
19058;DHT22;9662;53.612;9.914;2022-08-05T06:12:53;19.40;99.90
19058;DHT22;9662;53.612;9.914;2022-08-05T06:15:20;19.40;99.90
19058;DHT22;9662;53.612;9.914;2022-08-05T06:17:46;19.90;99.90
19058;DHT22;9662;53.612;9.914;2022-08-05T06:20:13;19.90;99.90
19058;DHT22;9662;53.612;9.914;2022-08-05T06:22:40;19.70;99.90
19058;DHT22;9662;53.612;9.914;2022-08-05T06:25:07;19.30;99.90
19058;DHT22;9662;53.612;9.914;2022-08-05T06:27:36;19.60;99.90
19058;DHT22;9662;53.612;9.914;2022-08-05T06:30:04;20.00;99.90
19058;DHT22;9662;53.612;9.914;2022-08-05T06:32:31;20.40;99.90
19058;DHT22;9662;53.612;9.914;2022-08-05T06:34:57;20.80;99.90
19058;DHT22;9662;53.612;9.914;2022-08-05T06:37:25;20.50;99.90
19058;DHT22;9662;53.612;9.914;2022-08-05T06:39:51;20.40;99.90
19058;DHT22;9662;53.612;9.914;2022-08-05T06:42:18;21.00;99.90
19058;DHT22;9662;53.612;9.914;2022-08-05T06:44:46;21.30;99.90
19058;DHT22;9662;53.612;9.914;2022-08-05T06:47:13;20.60;99.90
19058;DHT22;9662;53.612;9.914;2022-08-05T06:49:40;20.90;99.90
19058;DHT22;9662;53.612;9.914;2022-08-05T06:52:06;21.30;99.90
19058;DHT22;9662;53.612;9.914;2022-08-05T06:54:33;20.80;99.90
19058;DHT22;9662;53.612;9.914;2022-08-05T06:57:00;21.00;99.90
19058;DHT22;9662;53.612;9.914;2022-08-05T06:59:27;21.30;99.90
19058;DHT22;9662;53.612;9.914;2022-08-05T07:01:55;20.80;99.90
19058;DHT22;9662;53.612;9.914;2022-08-05T07:04:22;21.40;99.90
19058;DHT22;9662;53.612;9.914;2022-08-05T07:06:48;20.20;99.90
19058;DHT22;9662;53.612;9.914;2022-08-05T07:09:15;20.60;99.90
19058;DHT22;9662;53.612;9.914;2022-08-05T07:11:42;21.50;99.90
19058;DHT22;9662;53.612;9.914;2022-08-05T07:14:09;20.90;99.90
19058;DHT22;9662;53.612;9.914;2022-08-05T07:16:54;21.40;99.90
19058;DHT22;9662;53.612;9.914;2022-08-05T07:19:24;20.50;99.90
19058;DHT22;9662;53.612;9.914;2022-08-05T07:21:52;20.20;99.90
19058;DHT22;9662;53.612;9.914;2022-08-05T07:24:18;20.50;99.90
19058;DHT22;9662;53.612;9.914;2022-08-05T07:26:45;20.60;99.90
19058;DHT22;9662;53.612;9.914;2022-08-05T07:29:13;21.20;99.90
19058;DHT22;9662;53.612;9.914;2022-08-05T07:31:40;20.90;99.90
19058;DHT22;9662;53.612;9.914;2022-08-05T07:34:08;21.10;99.90
19058;DHT22;9662;53.612;9.914;2022-08-05T07:36:35;21.00;99.90
19058;DHT22;9662;53.612;9.914;2022-08-05T07:39:03;20.90;99.90
19058;DHT22;9662;53.612;9.914;2022-08-05T07:41:30;20.80;99.90
19058;DHT22;9662;53.612;9.914;2022-08-05T07:43:58;21.10;99.90
19058;DHT22;9662;53.612;9.914;2022-08-05T07:46:27;21.20;99.90
19058;DHT22;9662;53.612;9.914;2022-08-05T07:48:55;21.30;99.90
19058;DHT22;9662;53.612;9.914;2022-08-05T07:51:23;21.00;99.90
19058;DHT22;9662;53.612;9.914;2022-08-05T07:53:50;20.40;99.90
19058;DHT22;9662;53.612;9.914;2022-08-05T07:56:16;20.80;99.90
19058;DHT22;9662;53.612;9.914;2022-08-05T07:58:43;20.90;99.90
19058;DHT22;9662;53.612;9.914;2022-08-05T08:01:10;20.60;99.90
19058;DHT22;9662;53.612;9.914;2022-08-05T08:03:37;20.80;99.90
19058;DHT22;9662;53.612;9.914;2022-08-05T08:06:04;20.90;99.90
19058;DHT22;9662;53.612;9.914;2022-08-05T08:08:32;20.90;99.90
19058;DHT22;9662;53.612;9.914;2022-08-05T08:10:59;21.00;99.90
19058;DHT22;9662;53.612;9.914;2022-08-05T08:13:25;21.10;99.90
19058;DHT22;9662;53.612;9.914;2022-08-05T08:15:52;21.00;99.90
19058;DHT22;9662;53.612;9.914;2022-08-05T08:18:19;20.60;99.90
19058;DHT22;9662;53.612;9.914;2022-08-05T08:20:46;20.80;99.90
19058;DHT22;9662;53.612;9.914;2022-08-05T08:23:13;20.80;99.90
19058;DHT22;9662;53.612;9.914;2022-08-05T08:25:44;21.00;99.90
19058;DHT22;9662;53.612;9.914;2022-08-05T08:28:11;21.00;99.90
19058;DHT22;9662;53.612;9.914;2022-08-05T08:30:38;20.80;99.90
19058;DHT22;9662;53.612;9.914;2022-08-05T08:33:07;20.60;99.90
19058;DHT22;9662;53.612;9.914;2022-08-05T08:35:35;21.10;99.90
19058;DHT22;9662;53.612;9.914;2022-08-05T08:38:02;20.70;99.90
19058;DHT22;9662;53.612;9.914;2022-08-05T08:40:31;21.30;99.90
19058;DHT22;9662;53.612;9.914;2022-08-05T08:43:00;20.70;99.90
19058;DHT22;9662;53.612;9.914;2022-08-05T08:45:27;20.60;99.90
19058;DHT22;9662;53.612;9.914;2022-08-05T08:47:55;19.80;99.90
19058;DHT22;9662;53.612;9.914;2022-08-05T08:50:24;19.90;99.90
19058;DHT22;9662;53.612;9.914;2022-08-05T08:52:53;19.90;99.90
19058;DHT22;9662;53.612;9.914;2022-08-05T08:55:22;19.60;99.90
19058;DHT22;9662;53.612;9.914;2022-08-05T08:57:49;19.90;99.90
19058;DHT22;9662;53.612;9.914;2022-08-05T09:00:17;19.90;99.90
19058;DHT22;9662;53.612;9.914;2022-08-05T09:02:44;19.50;99.90
19058;DHT22;9662;53.612;9.914;2022-08-05T09:05:11;20.00;99.90
19058;DHT22;9662;53.612;9.914;2022-08-05T09:07:38;20.30;99.90
19058;DHT22;9662;53.612;9.914;2022-08-05T09:10:06;20.60;99.90
19058;DHT22;9662;53.612;9.914;2022-08-05T09:12:33;20.30;99.90
19058;DHT22;9662;53.612;9.914;2022-08-05T09:15:01;20.70;99.90
19058;DHT22;9662;53.612;9.914;2022-08-05T09:17:30;20.80;99.90
19058;DHT22;9662;53.612;9.914;2022-08-05T09:19:57;21.00;99.90
19058;DHT22;9662;53.612;9.914;2022-08-05T09:22:24;21.40;99.90
19058;DHT22;9662;53.612;9.914;2022-08-05T09:24:58;21.10;99.90
19058;DHT22;9662;53.612;9.914;2022-08-05T09:27:30;21.30;99.90
19058;DHT22;9662;53.612;9.914;2022-08-05T09:29:58;20.70;99.90
19058;DHT22;9662;53.612;9.914;2022-08-05T09:32:34;21.00;99.90
19058;DHT22;9662;53.612;9.914;2022-08-05T09:35:09;20.90;99.90
19058;DHT22;9662;53.612;9.914;2022-08-05T09:37:37;20.80;99.90
19058;DHT22;9662;53.612;9.914;2022-08-05T09:40:06;21.30;99.90
19058;DHT22;9662;53.612;9.914;2022-08-05T09:42:39;20.30;99.90
19058;DHT22;9662;53.612;9.914;2022-08-05T09:45:07;20.90;99.90
19058;DHT22;9662;53.612;9.914;2022-08-05T09:47:39;21.00;99.90
19058;DHT22;9662;53.612;9.914;2022-08-05T09:50:07;21.30;99.90
19058;DHT22;9662;53.612;9.914;2022-08-05T09:52:34;20.80;99.90
19058;DHT22;9662;53.612;9.914;2022-08-05T09:55:04;20.40;99.90
19058;DHT22;9662;53.612;9.914;2022-08-05T09:57:34;20.50;99.90
19058;DHT22;9662;53.612;9.914;2022-08-05T10:00:04;20.40;99.90
19058;DHT22;9662;53.612;9.914;2022-08-05T10:02:32;20.40;99.90
19058;DHT22;9662;53.612;9.914;2022-08-05T10:05:06;20.60;99.90
19058;DHT22;9662;53.612;9.914;2022-08-05T10:07:51;20.90;99.90
19058;DHT22;9662;53.612;9.914;2022-08-05T10:10:22;21.30;99.90
19058;DHT22;9662;53.612;9.914;2022-08-05T10:12:51;21.30;99.90
19058;DHT22;9662;53.612;9.914;2022-08-05T10:15:23;21.10;99.90
19058;DHT22;9662;53.612;9.914;2022-08-05T10:20:43;20.80;99.90
19058;DHT22;9662;53.612;9.914;2022-08-05T10:23:12;20.80;99.90
19058;DHT22;9662;53.612;9.914;2022-08-05T10:25:39;20.50;99.90
19058;DHT22;9662;53.612;9.914;2022-08-05T10:28:06;20.60;99.90
19058;DHT22;9662;53.612;9.914;2022-08-05T10:30:34;21.00;99.90
19058;DHT22;9662;53.612;9.914;2022-08-05T10:33:02;20.80;99.90
19058;DHT22;9662;53.612;9.914;2022-08-05T10:35:29;20.60;99.90
19058;DHT22;9662;53.612;9.914;2022-08-05T10:37:58;20.80;99.90
19058;DHT22;9662;53.612;9.914;2022-08-05T10:40:30;20.70;99.90
19058;DHT22;9662;53.612;9.914;2022-08-05T10:43:16;20.90;99.90
19058;DHT22;9662;53.612;9.914;2022-08-05T10:45:54;20.80;99.90
19058;DHT22;9662;53.612;9.914;2022-08-05T10:48:28;20.70;99.90
19058;DHT22;9662;53.612;9.914;2022-08-05T10:51:01;20.90;99.90
19058;DHT22;9662;53.612;9.914;2022-08-05T10:53:51;20.60;99.90
19058;DHT22;9662;53.612;9.914;2022-08-05T10:56:22;20.60;99.90
19058;DHT22;9662;53.612;9.914;2022-08-05T10:59:02;19.90;99.90
19058;DHT22;9662;53.612;9.914;2022-08-05T11:01:31;20.70;99.90
19058;DHT22;9662;53.612;9.914;2022-08-05T11:03:59;20.60;99.90
19058;DHT22;9662;53.612;9.914;2022-08-05T11:06:26;20.60;99.90
19058;DHT22;9662;53.612;9.914;2022-08-05T11:09:17;20.80;99.90
19058;DHT22;9662;53.612;9.914;2022-08-05T11:11:45;20.70;99.90
19058;DHT22;9662;53.612;9.914;2022-08-05T11:14:13;20.90;99.90
19058;DHT22;9662;53.612;9.914;2022-08-05T11:19:48;20.70;99.90
19058;DHT22;9662;53.612;9.914;2022-08-05T11:22:37;20.70;99.90
19058;DHT22;9662;53.612;9.914;2022-08-05T11:25:27;20.70;99.90
19058;DHT22;9662;53.612;9.914;2022-08-05T11:27:54;20.70;99.90
19058;DHT22;9662;53.612;9.914;2022-08-05T11:30:21;21.00;99.90
19058;DHT22;9662;53.612;9.914;2022-08-05T11:32:48;20.80;99.90
19058;DHT22;9662;53.612;9.914;2022-08-05T11:38:15;20.70;99.90
19058;DHT22;9662;53.612;9.914;2022-08-05T11:41:00;20.80;99.90
19058;DHT22;9662;53.612;9.914;2022-08-05T11:43:28;20.70;99.90
19058;DHT22;9662;53.612;9.914;2022-08-05T11:45:55;21.00;99.90
19058;DHT22;9662;53.612;9.914;2022-08-05T11:48:22;20.60;99.90
19058;DHT22;9662;53.612;9.914;2022-08-05T11:50:52;20.90;99.90
19058;DHT22;9662;53.612;9.914;2022-08-05T11:53:19;20.80;99.90
19058;DHT22;9662;53.612;9.914;2022-08-05T11:55:56;20.90;99.90
19058;DHT22;9662;53.612;9.914;2022-08-05T11:58:27;21.30;99.90
19058;DHT22;9662;53.612;9.914;2022-08-05T12:01:00;21.50;99.90
19058;DHT22;9662;53.612;9.914;2022-08-05T12:03:28;21.30;99.90
19058;DHT22;9662;53.612;9.914;2022-08-05T12:05:58;21.60;99.90
19058;DHT22;9662;53.612;9.914;2022-08-05T12:08:25;21.50;99.90
19058;DHT22;9662;53.612;9.914;2022-08-05T12:10:52;21.50;99.90
19058;DHT22;9662;53.612;9.914;2022-08-05T12:13:25;21.90;99.90
19058;DHT22;9662;53.612;9.914;2022-08-05T12:15:52;21.90;99.90
19058;DHT22;9662;53.612;9.914;2022-08-05T12:18:24;21.90;99.90
19058;DHT22;9662;53.612;9.914;2022-08-05T12:20:52;22.10;99.90
19058;DHT22;9662;53.612;9.914;2022-08-05T12:23:19;22.40;99.90
19058;DHT22;9662;53.612;9.914;2022-08-05T12:25:50;22.50;99.90
19058;DHT22;9662;53.612;9.914;2022-08-05T12:28:35;22.40;99.90
19058;DHT22;9662;53.612;9.914;2022-08-05T12:31:03;22.50;99.90
19058;DHT22;9662;53.612;9.914;2022-08-05T12:33:30;22.70;99.90
19058;DHT22;9662;53.612;9.914;2022-08-05T12:35:57;23.00;99.90
19058;DHT22;9662;53.612;9.914;2022-08-05T12:38:24;23.10;99.90
19058;DHT22;9662;53.612;9.914;2022-08-05T12:40:52;23.20;99.90
19058;DHT22;9662;53.612;9.914;2022-08-05T12:43:19;23.30;99.90
19058;DHT22;9662;53.612;9.914;2022-08-05T12:45:51;23.00;99.90
19058;DHT22;9662;53.612;9.914;2022-08-05T12:48:18;22.90;99.90
19058;DHT22;9662;53.612;9.914;2022-08-05T12:51:09;23.10;99.90
19058;DHT22;9662;53.612;9.914;2022-08-05T12:53:40;23.20;99.90
19058;DHT22;9662;53.612;9.914;2022-08-05T12:56:20;23.40;99.90
19058;DHT22;9662;53.612;9.914;2022-08-05T12:59:12;23.30;99.90
19058;DHT22;9662;53.612;9.914;2022-08-05T13:01:41;23.20;99.90
19058;DHT22;9662;53.612;9.914;2022-08-05T13:04:08;23.50;99.90
19058;DHT22;9662;53.612;9.914;2022-08-05T13:06:40;23.80;99.90
19058;DHT22;9662;53.612;9.914;2022-08-05T13:09:10;23.80;99.90
19058;DHT22;9662;53.612;9.914;2022-08-05T13:11:39;23.90;99.90
19058;DHT22;9662;53.612;9.914;2022-08-05T13:14:14;23.70;99.90
19058;DHT22;9662;53.612;9.914;2022-08-05T13:16:56;23.90;99.90
19058;DHT22;9662;53.612;9.914;2022-08-05T13:19:24;23.40;99.90
19058;DHT22;9662;53.612;9.914;2022-08-05T13:21:52;23.90;99.90
19058;DHT22;9662;53.612;9.914;2022-08-05T13:24:19;23.70;99.90
19058;DHT22;9662;53.612;9.914;2022-08-05T13:26:48;23.90;99.90
19058;DHT22;9662;53.612;9.914;2022-08-05T13:29:15;23.80;99.90
19058;DHT22;9662;53.612;9.914;2022-08-05T13:31:42;24.10;99.90
19058;DHT22;9662;53.612;9.914;2022-08-05T13:34:10;24.30;99.90
19058;DHT22;9662;53.612;9.914;2022-08-05T13:36:37;24.40;99.90
19058;DHT22;9662;53.612;9.914;2022-08-05T13:39:06;24.30;99.90
19058;DHT22;9662;53.612;9.914;2022-08-05T13:41:33;24.10;99.90
19058;DHT22;9662;53.612;9.914;2022-08-05T13:44:00;24.20;99.90
19058;DHT22;9662;53.612;9.914;2022-08-05T13:46:27;24.30;99.90
19058;DHT22;9662;53.612;9.914;2022-08-05T13:48:54;24.00;99.90
19058;DHT22;9662;53.612;9.914;2022-08-05T13:51:30;24.10;99.90
19058;DHT22;9662;53.612;9.914;2022-08-05T13:53:57;24.10;99.90
19058;DHT22;9662;53.612;9.914;2022-08-05T13:56:24;23.90;99.90
19058;DHT22;9662;53.612;9.914;2022-08-05T13:58:51;23.80;99.90
19058;DHT22;9662;53.612;9.914;2022-08-05T14:01:18;23.40;99.90
19058;DHT22;9662;53.612;9.914;2022-08-05T14:03:45;23.40;99.90
19058;DHT22;9662;53.612;9.914;2022-08-05T14:06:35;23.70;99.90
19058;DHT22;9662;53.612;9.914;2022-08-05T14:09:02;23.60;99.90
19058;DHT22;9662;53.612;9.914;2022-08-05T14:11:29;23.60;99.90
19058;DHT22;9662;53.612;9.914;2022-08-05T14:13:56;23.30;99.90
19058;DHT22;9662;53.612;9.914;2022-08-05T14:16:23;23.40;99.90
19058;DHT22;9662;53.612;9.914;2022-08-05T14:18:50;23.10;99.90
19058;DHT22;9662;53.612;9.914;2022-08-05T14:21:17;22.80;99.90
19058;DHT22;9662;53.612;9.914;2022-08-05T14:23:45;22.80;99.90
19058;DHT22;9662;53.612;9.914;2022-08-05T14:26:11;23.00;99.90
19058;DHT22;9662;53.612;9.914;2022-08-05T14:28:38;23.00;99.90
19058;DHT22;9662;53.612;9.914;2022-08-05T14:31:05;23.20;99.90
19058;DHT22;9662;53.612;9.914;2022-08-05T14:33:32;23.50;99.90
19058;DHT22;9662;53.612;9.914;2022-08-05T14:35:59;23.50;99.90
19058;DHT22;9662;53.612;9.914;2022-08-05T14:38:26;23.90;99.90
19058;DHT22;9662;53.612;9.914;2022-08-05T14:40:55;23.70;99.90
19058;DHT22;9662;53.612;9.914;2022-08-05T14:43:22;23.90;99.90
19058;DHT22;9662;53.612;9.914;2022-08-05T14:45:48;23.90;99.90
19058;DHT22;9662;53.612;9.914;2022-08-05T14:48:15;24.00;99.90
19058;DHT22;9662;53.612;9.914;2022-08-05T14:50:42;24.10;99.90
19058;DHT22;9662;53.612;9.914;2022-08-05T14:53:09;23.90;99.90
19058;DHT22;9662;53.612;9.914;2022-08-05T14:55:36;24.10;99.90
19058;DHT22;9662;53.612;9.914;2022-08-05T14:58:05;24.20;99.90
19058;DHT22;9662;53.612;9.914;2022-08-05T15:00:32;24.10;99.90
19058;DHT22;9662;53.612;9.914;2022-08-05T15:02:58;23.60;99.90
19058;DHT22;9662;53.612;9.914;2022-08-05T15:05:25;23.40;99.90
19058;DHT22;9662;53.612;9.914;2022-08-05T15:07:52;23.30;99.90
19058;DHT22;9662;53.612;9.914;2022-08-05T15:10:19;23.30;99.90
19058;DHT22;9662;53.612;9.914;2022-08-05T15:12:46;23.40;99.90
19058;DHT22;9662;53.612;9.914;2022-08-05T15:15:14;23.70;99.90
19058;DHT22;9662;53.612;9.914;2022-08-05T15:17:41;23.50;99.90
19058;DHT22;9662;53.612;9.914;2022-08-05T15:20:10;23.60;99.90
19058;DHT22;9662;53.612;9.914;2022-08-05T15:22:38;23.40;99.90
19058;DHT22;9662;53.612;9.914;2022-08-05T15:25:06;23.40;99.90
19058;DHT22;9662;53.612;9.914;2022-08-05T15:27:33;23.00;99.90
19058;DHT22;9662;53.612;9.914;2022-08-05T15:30:00;23.00;99.90
19058;DHT22;9662;53.612;9.914;2022-08-05T15:32:28;22.60;99.90
19058;DHT22;9662;53.612;9.914;2022-08-05T15:34:55;21.30;99.90
19058;DHT22;9662;53.612;9.914;2022-08-05T15:37:21;20.80;99.90
19058;DHT22;9662;53.612;9.914;2022-08-05T15:39:48;20.50;99.90
19058;DHT22;9662;53.612;9.914;2022-08-05T15:42:15;20.20;99.90
19058;DHT22;9662;53.612;9.914;2022-08-05T15:44:42;20.10;99.90
19058;DHT22;9662;53.612;9.914;2022-08-05T15:47:09;19.90;99.90
19058;DHT22;9662;53.612;9.914;2022-08-05T15:49:37;19.60;99.90
19058;DHT22;9662;53.612;9.914;2022-08-05T15:52:04;19.80;99.90
19058;DHT22;9662;53.612;9.914;2022-08-05T15:54:31;19.60;99.90
19058;DHT22;9662;53.612;9.914;2022-08-05T15:56:58;19.50;99.90
19058;DHT22;9662;53.612;9.914;2022-08-05T15:59:25;19.70;99.90
19058;DHT22;9662;53.612;9.914;2022-08-05T16:01:51;19.60;99.90
19058;DHT22;9662;53.612;9.914;2022-08-05T16:04:18;19.60;99.90